Time;durP1;ratioP1;P1;durP2;ratioP2;P2;SDS_P1;SDS_P2;PMS_P1;PMS_P2;Temp;Humidity;BMP_temperature;BMP_pressure;BME280_temperature;BME280_humidity;BME280_pressure;Samples;Min_cycle;Max_cycle;Signal;HPM_P1;HPM_P2
2021/08/29 00:00:18;;;;;;;1.95;1.20;;;14.30;99.90;;;;;;4994913;28;20224;-83
2021/08/29 00:02:45;;;;;;;1.10;1.00;;;14.30;99.90;;;;;;4997641;28;20255;-79
2021/08/29 00:05:12;;;;;;;0.88;0.88;;;14.40;99.90;;;;;;4997334;28;20303;-81
2021/08/29 00:07:39;;;;;;;1.33;0.90;;;14.40;99.90;;;;;;4986206;28;20224;-80
2021/08/29 00:10:08;;;;;;;0.98;0.98;;;14.50;99.90;;;;;;4987546;28;20749;-78
2021/08/29 00:12:36;;;;;;;1.08;1.00;;;14.50;99.90;;;;;;4990742;28;20300;-79
2021/08/29 00:15:05;;;;;;;0.90;0.90;;;14.50;99.90;;;;;;4987100;28;20288;-79
2021/08/29 00:17:32;;;;;;;0.80;0.80;;;14.60;99.90;;;;;;4990916;28;20275;-79
2021/08/29 00:19:59;;;;;;;1.13;1.02;;;14.50;99.90;;;;;;4989141;28;20764;-80
2021/08/29 00:22:26;;;;;;;2.40;0.90;;;14.50;99.90;;;;;;4992047;28;20228;-81
2021/08/29 00:24:53;;;;;;;2.25;1.00;;;14.50;99.90;;;;;;4981943;28;20232;-83
2021/08/29 00:27:20;;;;;;;0.82;0.82;;;14.50;99.90;;;;;;4985251;28;20699;-79
2021/08/29 00:29:47;;;;;;;0.88;0.88;;;14.50;99.90;;;;;;4980715;28;20228;-80
2021/08/29 00:32:15;;;;;;;0.90;0.88;;;14.50;99.90;;;;;;4986994;28;20638;-81
2021/08/29 00:34:42;;;;;;;0.77;0.77;;;14.50;99.90;;;;;;4987041;28;20358;-83
2021/08/29 00:37:09;;;;;;;0.98;0.98;;;14.40;99.90;;;;;;4986757;28;20659;-78
2021/08/29 00:39:36;;;;;;;1.02;0.93;;;14.40;99.90;;;;;;4984566;28;20232;-81
2021/08/29 00:42:06;;;;;;;0.82;0.82;;;14.40;99.90;;;;;;4986817;28;20232;-83
2021/08/29 00:44:34;;;;;;;1.10;0.98;;;14.40;99.90;;;;;;4986653;28;20275;-80
2021/08/29 00:47:03;;;;;;;0.90;0.90;;;14.40;99.90;;;;;;4986661;28;20235;-81
2021/08/29 00:49:32;;;;;;;0.77;0.77;;;14.40;99.90;;;;;;4988607;28;20463;-79
2021/08/29 00:52:01;;;;;;;0.70;0.70;;;14.40;99.90;;;;;;4984100;28;20235;-83
2021/08/29 00:54:30;;;;;;;1.17;0.60;;;14.30;99.90;;;;;;4982181;28;20282;-78
2021/08/29 00:56:57;;;;;;;0.85;0.85;;;14.30;99.90;;;;;;4987226;28;20296;-78
2021/08/29 00:59:25;;;;;;;0.70;0.70;;;14.20;99.90;;;;;;4987259;28;20283;-79
2021/08/29 01:02:00;;;;;;;0.80;0.80;;;14.20;99.90;;;;;;4986050;28;20302;-77
2021/08/29 01:04:33;;;;;;;0.90;0.70;;;14.20;99.90;;;;;;4987279;28;20215;-83
2021/08/29 01:07:05;;;;;;;0.70;0.70;;;14.20;99.90;;;;;;4987075;28;20244;-82
2021/08/29 01:09:33;;;;;;;1.00;0.90;;;14.10;99.90;;;;;;4990934;28;20216;-83
2021/08/29 01:12:01;;;;;;;0.95;0.80;;;14.10;99.90;;;;;;4988038;28;20242;-84
2021/08/29 01:14:30;;;;;;;0.80;0.80;;;14.10;99.90;;;;;;4990233;28;20216;-79
2021/08/29 01:17:00;;;;;;;1.85;0.90;;;14.10;99.90;;;;;;4988870;28;20628;-79
2021/08/29 01:19:48;;;;;;;0.75;0.75;;;14.10;99.90;;;;;;4990505;28;20285;-80
2021/08/29 01:22:15;;;;;;;0.70;0.70;;;14.10;99.90;;;;;;4989125;28;20224;-79
2021/08/29 01:24:43;;;;;;;0.70;0.70;;;14.10;99.90;;;;;;4985781;28;20274;-79
2021/08/29 01:27:17;;;;;;;1.00;0.90;;;14.10;99.90;;;;;;4985243;28;20225;-79
2021/08/29 01:29:46;;;;;;;0.80;0.80;;;14.00;99.90;;;;;;4990444;28;20311;-77
2021/08/29 01:32:14;;;;;;;0.90;0.90;;;14.00;99.90;;;;;;4990079;28;20237;-80
2021/08/29 01:34:42;;;;;;;1.02;1.02;;;13.90;99.90;;;;;;4985456;28;20218;-82
2021/08/29 01:37:11;;;;;;;0.65;0.65;;;13.90;99.90;;;;;;4987823;28;20229;-78
2021/08/29 01:39:40;;;;;;;0.93;0.90;;;13.90;99.90;;;;;;4989310;28;20213;-82
2021/08/29 01:42:07;;;;;;;0.85;0.85;;;13.90;99.90;;;;;;4987011;28;20320;-78
2021/08/29 01:44:35;;;;;;;0.80;0.80;;;13.80;99.90;;;;;;4984568;28;20220;-79
2021/08/29 01:47:05;;;;;;;0.98;0.98;;;13.90;99.90;;;;;;4985862;28;20236;-84
2021/08/29 01:49:32;;;;;;;0.90;0.90;;;13.90;99.90;;;;;;4988779;28;20224;-79
2021/08/29 01:51:59;;;;;;;0.90;0.90;;;13.80;99.90;;;;;;4986015;28;20283;-82
2021/08/29 01:54:26;;;;;;;0.82;0.82;;;13.70;99.90;;;;;;4984633;28;20635;-80
2021/08/29 01:57:05;;;;;;;1.15;1.05;;;13.70;99.90;;;;;;4989532;28;20709;-83
2021/08/29 01:59:32;;;;;;;1.23;0.95;;;13.70;99.90;;;;;;4989808;28;20594;-82
2021/08/29 02:02:00;;;;;;;0.90;0.90;;;13.80;99.90;;;;;;4986092;28;20619;-80
2021/08/29 02:04:29;;;;;;;0.85;0.85;;;13.80;99.90;;;;;;4988474;28;20279;-80
2021/08/29 02:07:09;;;;;;;1.02;1.02;;;13.80;99.90;;;;;;4991530;28;20229;-79
2021/08/29 02:09:39;;;;;;;0.90;0.90;;;13.80;99.90;;;;;;4986845;28;20294;-79
2021/08/29 02:12:08;;;;;;;1.00;0.98;;;13.80;99.90;;;;;;4987164;28;20221;-81
2021/08/29 02:14:43;;;;;;;1.42;1.00;;;13.80;99.90;;;;;;4989770;28;20217;-83
2021/08/29 02:17:11;;;;;;;0.95;0.95;;;13.70;99.90;;;;;;4984158;28;20741;-80
2021/08/29 02:19:42;;;;;;;0.90;0.90;;;13.60;99.90;;;;;;4988730;28;20228;-79
2021/08/29 02:22:11;;;;;;;0.80;0.80;;;13.60;99.90;;;;;;4989994;28;20583;-84
2021/08/29 02:24:38;;;;;;;1.85;0.85;;;13.60;99.90;;;;;;4985039;28;20680;-83
2021/08/29 02:27:06;;;;;;;1.42;0.80;;;13.60;99.90;;;;;;4990101;28;20221;-79
2021/08/29 02:29:33;;;;;;;0.80;0.80;;;13.60;99.90;;;;;;4993810;28;20220;-80
2021/08/29 02:32:01;;;;;;;0.98;0.98;;;13.50;99.90;;;;;;4990804;28;20286;-82
2021/08/29 02:34:29;;;;;;;0.80;0.80;;;13.50;99.90;;;;;;4991654;28;20223;-78
2021/08/29 02:36:59;;;;;;;0.70;0.70;;;13.50;99.90;;;;;;4987075;28;20255;-86
2021/08/29 02:39:27;;;;;;;0.70;0.70;;;13.50;99.90;;;;;;4987719;28;20226;-78
2021/08/29 02:41:57;;;;;;;1.85;1.00;;;13.50;99.90;;;;;;4983279;28;20228;-81
2021/08/29 02:44:25;;;;;;;0.98;0.98;;;13.50;99.90;;;;;;4986736;28;20232;-79
2021/08/29 02:46:52;;;;;;;0.82;0.82;;;13.60;99.90;;;;;;4982591;28;20233;-79
2021/08/29 02:49:21;;;;;;;0.90;0.90;;;13.50;99.90;;;;;;4980327;28;20587;-79
2021/08/29 02:51:50;;;;;;;0.80;0.80;;;13.60;99.90;;;;;;4988150;28;20308;-79
2021/08/29 02:54:19;;;;;;;0.77;0.77;;;13.60;99.90;;;;;;4994738;28;20228;-80
2021/08/29 02:56:49;;;;;;;1.00;1.00;;;13.60;99.90;;;;;;4992417;28;20257;-80
2021/08/29 02:59:16;;;;;;;0.80;0.80;;;13.60;99.90;;;;;;4991837;28;20225;-78
2021/08/29 03:01:44;;;;;;;0.75;0.75;;;13.50;99.90;;;;;;4984327;28;20228;-79
2021/08/29 03:04:12;;;;;;;0.57;0.57;;;13.50;99.90;;;;;;4984912;28;20236;-79
2021/08/29 03:06:39;;;;;;;0.90;0.90;;;13.50;99.90;;;;;;4992836;28;20770;-82
2021/08/29 03:09:07;;;;;;;0.73;0.73;;;13.40;99.90;;;;;;4994954;28;20258;-79
2021/08/29 03:11:35;;;;;;;0.95;0.95;;;13.30;99.90;;;;;;4984944;28;20224;-82
2021/08/29 03:14:03;;;;;;;0.77;0.77;;;13.30;99.90;;;;;;4987372;28;20232;-78
2021/08/29 03:16:31;;;;;;;0.80;0.80;;;13.30;99.90;;;;;;4993794;28;20231;-81
2021/08/29 03:19:00;;;;;;;1.00;1.00;;;13.30;99.90;;;;;;4991199;28;20327;-81
2021/08/29 03:21:27;;;;;;;0.93;0.93;;;13.30;99.90;;;;;;4989864;28;20295;-80
2021/08/29 03:23:55;;;;;;;0.90;0.90;;;13.30;99.90;;;;;;4987024;28;20701;-79
2021/08/29 03:26:23;;;;;;;0.80;0.80;;;13.20;99.90;;;;;;4986409;28;20650;-78
2021/08/29 03:28:52;;;;;;;0.70;0.70;;;13.20;99.90;;;;;;4985571;28;20228;-81
2021/08/29 03:31:19;;;;;;;1.67;0.80;;;13.10;99.90;;;;;;4983469;28;20691;-78
2021/08/29 03:33:48;;;;;;;1.02;1.00;;;13.10;99.90;;;;;;4987662;28;20229;-79
2021/08/29 03:36:21;;;;;;;0.85;0.80;;;13.10;99.90;;;;;;4984852;28;20312;-79
2021/08/29 03:38:50;;;;;;;0.88;0.88;;;13.00;99.90;;;;;;4986262;28;20386;-78
2021/08/29 03:41:18;;;;;;;0.90;0.90;;;13.10;99.90;;;;;;4987293;28;20316;-83
2021/08/29 03:43:46;;;;;;;0.82;0.82;;;13.00;99.90;;;;;;4988500;28;20231;-80
2021/08/29 03:46:16;;;;;;;0.77;0.77;;;13.00;99.90;;;;;;4988930;28;20351;-79
2021/08/29 03:48:44;;;;;;;0.90;0.90;;;13.00;99.90;;;;;;4993719;28;20232;-79
2021/08/29 03:51:15;;;;;;;0.95;0.95;;;13.00;99.90;;;;;;4991224;28;20275;-79
2021/08/29 03:53:43;;;;;;;1.23;0.90;;;12.90;99.90;;;;;;4986211;28;20313;-83
2021/08/29 03:56:11;;;;;;;0.80;0.80;;;12.90;99.90;;;;;;4982766;28;20240;-77
2021/08/29 03:58:40;;;;;;;0.80;0.80;;;12.90;99.90;;;;;;4986457;28;20252;-81
2021/08/29 04:01:08;;;;;;;0.80;0.80;;;12.90;99.90;;;;;;4987607;28;20245;-77
2021/08/29 04:03:37;;;;;;;0.90;0.90;;;12.90;99.90;;;;;;4987464;28;20307;-77
2021/08/29 04:06:05;;;;;;;0.88;0.88;;;12.90;99.90;;;;;;4984794;28;20240;-78
2021/08/29 04:08:36;;;;;;;1.00;1.00;;;12.90;99.90;;;;;;4983072;28;20225;-82
2021/08/29 04:11:04;;;;;;;0.95;0.95;;;12.80;99.90;;;;;;4986349;28;20240;-79
2021/08/29 04:13:32;;;;;;;0.70;0.70;;;12.70;99.90;;;;;;4996907;28;20223;-80
2021/08/29 04:16:03;;;;;;;0.90;0.90;;;12.60;99.90;;;;;;4982171;28;21765;-80
2021/08/29 04:18:36;;;;;;;0.90;0.90;;;12.60;99.90;;;;;;4985764;28;20233;-81
2021/08/29 04:21:05;;;;;;;0.90;0.90;;;12.60;99.90;;;;;;4985234;28;20232;-78
2021/08/29 04:23:33;;;;;;;1.10;1.00;;;12.50;99.90;;;;;;4989708;28;20235;-77
2021/08/29 04:26:00;;;;;;;0.82;0.82;;;12.50;99.90;;;;;;4990771;28;20233;-82
2021/08/29 04:28:28;;;;;;;1.00;1.00;;;12.50;99.90;;;;;;4991137;28;20217;-80
2021/08/29 04:30:57;;;;;;;1.00;1.00;;;12.50;99.90;;;;;;4993598;28;20256;-80
2021/08/29 04:33:26;;;;;;;1.05;1.00;;;12.60;99.90;;;;;;4989713;28;20235;-81
2021/08/29 04:35:53;;;;;;;0.80;0.80;;;12.60;99.90;;;;;;4993343;28;20252;-75
2021/08/29 04:38:21;;;;;;;0.82;0.82;;;12.70;99.90;;;;;;4984655;23;20293;-76
2021/08/29 04:40:48;;;;;;;1.60;0.90;;;12.70;99.90;;;;;;5034749;28;20215;-75
2021/08/29 04:43:15;;;;;;;0.80;0.80;;;12.70;99.90;;;;;;5039770;28;20723;-76
2021/08/29 04:45:42;;;;;;;0.80;0.80;;;12.80;99.90;;;;;;5040292;28;20230;-76
2021/08/29 04:48:09;;;;;;;0.90;0.90;;;12.80;99.90;;;;;;5040125;28;20305;-75
2021/08/29 04:50:36;;;;;;;0.75;0.75;;;12.80;99.90;;;;;;5040018;28;20573;-76
2021/08/29 04:53:04;;;;;;;1.38;1.27;;;12.80;99.90;;;;;;5039408;28;20230;-75
2021/08/29 04:55:32;;;;;;;1.10;1.10;;;12.80;99.90;;;;;;5036306;28;20288;-76
2021/08/29 04:57:59;;;;;;;1.00;1.00;;;12.80;99.90;;;;;;5036662;28;20231;-76
2021/08/29 05:00:26;;;;;;;0.90;0.90;;;12.90;99.90;;;;;;5035177;28;20215;-76
2021/08/29 05:02:53;;;;;;;0.90;0.90;;;12.90;99.90;;;;;;5036704;28;20229;-76
2021/08/29 05:05:20;;;;;;;0.93;0.93;;;12.90;99.90;;;;;;5035947;28;20242;-76
2021/08/29 05:07:48;;;;;;;0.90;0.90;;;13.00;99.90;;;;;;5037006;28;20246;-75
2021/08/29 05:10:15;;;;;;;0.73;0.73;;;13.00;99.90;;;;;;5041502;28;20223;-75
2021/08/29 05:12:43;;;;;;;1.00;1.00;;;13.00;99.90;;;;;;5032558;28;20278;-76
2021/08/29 05:15:11;;;;;;;0.90;0.90;;;13.20;99.90;;;;;;5040951;28;20276;-76
2021/08/29 05:17:38;;;;;;;1.02;1.02;;;13.50;99.90;;;;;;5034684;28;20304;-75
2021/08/29 05:20:06;;;;;;;1.00;1.00;;;13.90;99.90;;;;;;5037807;28;20234;-75
2021/08/29 05:22:33;;;;;;;0.90;0.90;;;14.20;99.90;;;;;;5035791;28;20218;-75
2021/08/29 05:25:00;;;;;;;1.00;0.98;;;14.60;99.90;;;;;;5035067;28;20648;-76
2021/08/29 05:27:27;;;;;;;2.25;0.90;;;14.80;99.90;;;;;;5032732;28;20219;-75
2021/08/29 05:29:55;;;;;;;0.98;0.98;;;15.10;99.90;;;;;;5029683;28;20222;-76
2021/08/29 05:32:22;;;;;;;0.95;0.95;;;15.20;99.90;;;;;;5030130;28;20253;-75
2021/08/29 05:34:49;;;;;;;0.93;0.93;;;15.00;99.90;;;;;;5034679;28;20265;-76
2021/08/29 05:37:16;;;;;;;1.33;1.10;;;14.80;99.90;;;;;;5038495;28;20215;-75
2021/08/29 05:39:43;;;;;;;1.02;1.00;;;14.70;99.90;;;;;;5037215;28;20231;-76
2021/08/29 05:42:10;;;;;;;1.20;1.10;;;14.70;99.90;;;;;;5034417;28;20226;-75
2021/08/29 05:44:37;;;;;;;0.93;0.93;;;14.70;99.90;;;;;;5039712;28;20234;-75
2021/08/29 05:47:06;;;;;;;0.90;0.90;;;14.70;99.90;;;;;;5035897;28;20227;-77
2021/08/29 05:49:33;;;;;;;1.13;1.00;;;14.70;99.90;;;;;;5041025;28;20759;-76
2021/08/29 05:52:00;;;;;;;0.80;0.80;;;14.60;99.90;;;;;;5032783;28;20235;-75
2021/08/29 05:54:27;;;;;;;0.90;0.90;;;14.40;99.90;;;;;;5038067;28;20222;-75
2021/08/29 05:56:54;;;;;;;0.82;0.82;;;14.40;99.90;;;;;;5039211;28;20264;-76
2021/08/29 05:59:21;;;;;;;1.00;1.00;;;14.30;99.90;;;;;;5042040;28;20598;-76
2021/08/29 06:01:48;;;;;;;0.90;0.90;;;14.30;99.90;;;;;;5040032;28;20222;-75
2021/08/29 06:04:16;;;;;;;1.85;1.17;;;14.30;99.90;;;;;;5040289;28;20231;-76
2021/08/29 06:06:43;;;;;;;0.75;0.75;;;14.50;99.90;;;;;;5039816;28;20227;-75
2021/08/29 06:09:10;;;;;;;0.90;0.90;;;14.60;99.90;;;;;;5044582;28;20766;-76
2021/08/29 06:11:37;;;;;;;1.10;1.00;;;14.70;99.90;;;;;;5046428;28;20218;-75
2021/08/29 06:14:06;;;;;;;1.00;1.00;;;14.70;99.90;;;;;;5041812;28;20705;-76
2021/08/29 06:16:33;;;;;;;1.23;1.13;;;14.50;99.90;;;;;;5041755;28;20238;-75
2021/08/29 06:19:00;;;;;;;0.90;0.90;;;14.50;99.90;;;;;;5047972;28;20657;-76
2021/08/29 06:21:28;;;;;;;1.10;1.10;;;14.40;99.90;;;;;;5048367;28;20227;-75
2021/08/29 06:23:56;;;;;;;1.10;1.10;;;14.30;99.90;;;;;;5041800;28;20231;-76
2021/08/29 06:26:23;;;;;;;1.20;1.10;;;14.20;99.90;;;;;;5040049;28;21539;-75
2021/08/29 06:28:50;;;;;;;1.20;1.10;;;14.30;99.90;;;;;;5042811;28;20284;-76
2021/08/29 06:31:17;;;;;;;1.30;1.20;;;14.40;99.90;;;;;;5044723;28;20653;-75
2021/08/29 06:33:43;;;;;;;1.35;1.25;;;14.40;99.90;;;;;;5038589;28;20242;-75
2021/08/29 06:36:10;;;;;;;1.60;1.38;;;14.30;99.90;;;;;;5038676;28;22476;-76
2021/08/29 06:38:40;;;;;;;1.25;1.17;;;14.20;99.90;;;;;;5036433;28;20917;-76
2021/08/29 06:41:07;;;;;;;1.27;1.17;;;14.10;99.90;;;;;;5041185;28;20215;-76
2021/08/29 06:43:34;;;;;;;1.30;1.30;;;14.10;99.90;;;;;;5043095;28;20226;-75
2021/08/29 06:46:01;;;;;;;1.00;1.00;;;14.20;99.90;;;;;;5040328;28;20303;-75
2021/08/29 06:48:28;;;;;;;1.20;1.20;;;14.40;99.90;;;;;;5042624;28;20280;-75
2021/08/29 06:50:55;;;;;;;1.10;1.10;;;14.70;99.90;;;;;;5039350;28;20577;-75
2021/08/29 06:53:22;;;;;;;1.70;1.30;;;14.80;99.90;;;;;;5045621;28;20218;-76
2021/08/29 06:55:50;;;;;;;1.20;1.20;;;14.80;99.90;;;;;;5042066;28;20219;-76
2021/08/29 06:58:17;;;;;;;1.00;1.00;;;14.90;99.90;;;;;;5037128;28;20230;-74
2021/08/29 07:00:44;;;;;;;1.20;1.20;;;15.10;99.90;;;;;;5038143;28;20745;-76
2021/08/29 07:03:11;;;;;;;1.52;1.42;;;15.20;99.90;;;;;;5036119;28;20825;-76
2021/08/29 07:05:38;;;;;;;1.25;1.15;;;15.30;99.90;;;;;;5036036;28;20689;-76
2021/08/29 07:08:05;;;;;;;2.05;1.45;;;15.40;99.90;;;;;;5033352;28;20285;-76
2021/08/29 07:10:32;;;;;;;1.20;1.10;;;15.50;99.90;;;;;;5041705;28;20222;-76
2021/08/29 07:13:01;;;;;;;1.40;1.30;;;15.60;99.90;;;;;;5037332;28;20308;-76
2021/08/29 07:15:28;;;;;;;1.38;1.27;;;15.70;99.90;;;;;;5042829;28;20697;-75
2021/08/29 07:17:55;;;;;;;1.52;1.20;;;15.70;99.90;;;;;;5039287;28;20223;-76
2021/08/29 07:20:22;;;;;;;1.40;1.30;;;15.70;99.90;;;;;;5042122;28;20223;-75
2021/08/29 07:22:49;;;;;;;1.48;1.38;;;15.70;99.90;;;;;;5038648;28;20215;-75
2021/08/29 07:25:16;;;;;;;1.30;1.23;;;15.80;99.90;;;;;;5039922;28;20226;-75
2021/08/29 07:27:43;;;;;;;1.20;1.10;;;15.80;99.90;;;;;;5041854;28;20292;-75
2021/08/29 07:30:12;;;;;;;2.17;1.30;;;15.80;99.90;;;;;;5036171;28;20227;-75
2021/08/29 07:32:39;;;;;;;1.48;1.38;;;15.80;99.90;;;;;;5040719;28;20389;-76
2021/08/29 07:35:07;;;;;;;1.10;1.10;;;15.90;99.90;;;;;;5042087;28;20507;-76
2021/08/29 07:37:35;;;;;;;0.90;0.90;;;16.00;99.90;;;;;;5035928;28;20222;-75
2021/08/29 07:40:02;;;;;;;1.10;1.00;;;16.00;99.90;;;;;;5037505;28;20236;-76
2021/08/29 07:42:29;;;;;;;1.17;1.10;;;16.00;99.90;;;;;;5040522;28;20215;-76
2021/08/29 07:44:56;;;;;;;1.25;1.15;;;16.00;99.90;;;;;;5042893;28;20706;-76
2021/08/29 07:47:25;;;;;;;1.00;0.90;;;16.30;99.90;;;;;;5035460;28;20223;-75
2021/08/29 07:49:52;;;;;;;0.93;0.90;;;16.50;99.90;;;;;;5040763;28;20247;-75
2021/08/29 07:52:19;;;;;;;0.98;0.98;;;16.90;99.90;;;;;;5041674;28;20231;-75
2021/08/29 07:54:46;;;;;;;1.27;1.20;;;17.20;99.90;;;;;;5044707;28;20231;-75
2021/08/29 07:57:12;;;;;;;1.15;1.15;;;17.40;99.90;;;;;;5039600;28;20324;-75
2021/08/29 07:59:39;;;;;;;1.00;1.00;;;17.50;99.90;;;;;;5036608;28;20238;-76
2021/08/29 08:02:07;;;;;;;1.13;1.02;;;17.60;99.90;;;;;;5034206;28;20219;-75
2021/08/29 08:04:35;;;;;;;1.05;1.05;;;17.70;99.90;;;;;;5033593;28;20227;-74
2021/08/29 08:07:02;;;;;;;1.08;0.98;;;17.70;99.90;;;;;;5032768;28;20226;-76
2021/08/29 08:09:29;;;;;;;1.45;1.35;;;17.70;99.90;;;;;;5037161;28;20288;-75
2021/08/29 08:11:56;;;;;;;1.23;1.13;;;17.60;99.90;;;;;;5039192;28;20211;-77
2021/08/29 08:14:24;;;;;;;1.23;1.13;;;17.50;99.90;;;;;;5037381;28;20231;-76
2021/08/29 08:16:51;;;;;;;1.15;1.10;;;17.40;99.90;;;;;;5039232;28;20288;-75
2021/08/29 08:19:18;;;;;;;0.90;0.90;;;17.40;99.90;;;;;;5038834;28;20226;-76
2021/08/29 08:21:46;;;;;;;1.00;1.00;;;17.40;99.90;;;;;;5033445;28;20275;-76
2021/08/29 08:24:13;;;;;;;0.82;0.80;;;17.40;99.90;;;;;;5036690;28;20736;-77
2021/08/29 08:26:40;;;;;;;1.02;1.00;;;17.40;99.90;;;;;;5037417;28;20223;-76
2021/08/29 08:29:07;;;;;;;1.17;1.10;;;17.50;99.90;;;;;;5038282;28;20382;-75
2021/08/29 08:31:34;;;;;;;1.00;1.00;;;17.40;99.90;;;;;;5038839;28;20648;-76
2021/08/29 08:34:02;;;;;;;1.05;0.95;;;17.50;99.90;;;;;;5033309;28;20274;-76
2021/08/29 08:36:29;;;;;;;0.73;0.73;;;17.60;99.90;;;;;;5033946;28;20239;-76
2021/08/29 08:38:59;;;;;;;1.27;1.17;;;17.70;99.90;;;;;;5033757;28;20236;-76
2021/08/29 08:41:27;;;;;;;1.63;1.00;;;17.90;99.90;;;;;;5038819;28;20222;-75
2021/08/29 08:43:54;;;;;;;2.03;1.10;;;18.00;99.90;;;;;;5041366;28;20737;-76
2021/08/29 08:46:22;;;;;;;1.00;1.00;;;17.90;99.90;;;;;;5037806;28;20593;-75
2021/08/29 08:48:51;;;;;;;1.00;1.00;;;17.90;99.90;;;;;;5035851;28;20222;-76
2021/08/29 08:51:25;;;;;;;0.93;0.93;;;18.00;99.90;;;;;;5041920;28;20357;-76
2021/08/29 08:53:53;;;;;;;1.40;1.00;;;18.00;99.90;;;;;;5034602;28;20295;-76
2021/08/29 08:56:23;;;;;;;3.22;1.40;;;18.10;99.90;;;;;;5035339;28;20249;-75
2021/08/29 08:58:50;;;;;;;3.50;1.48;;;18.20;99.90;;;;;;5036964;28;20219;-75
2021/08/29 09:01:17;;;;;;;2.60;1.65;;;18.40;99.90;;;;;;5032654;28;20222;-75
2021/08/29 09:03:45;;;;;;;2.60;1.20;;;18.50;99.90;;;;;;5033467;28;20929;-75
2021/08/29 09:06:12;;;;;;;3.50;1.10;;;18.70;99.90;;;;;;5035124;28;20241;-76
2021/08/29 09:08:39;;;;;;;2.75;1.00;;;18.80;99.90;;;;;;5039809;28;20285;-75
2021/08/29 09:11:06;;;;;;;2.95;1.00;;;19.00;99.90;;;;;;5032016;28;20241;-76
2021/08/29 09:13:56;;;;;;;0.98;0.88;;;19.10;99.90;;;;;;5030929;28;20230;-76
2021/08/29 09:16:26;;;;;;;0.90;0.90;;;19.20;99.90;;;;;;5035595;28;20260;-76
2021/08/29 09:18:55;;;;;;;1.30;1.13;;;19.40;99.90;;;;;;5037203;28;21042;-74
2021/08/29 09:21:23;;;;;;;1.00;1.00;;;19.50;99.90;;;;;;5044619;28;20698;-73
2021/08/29 09:23:51;;;;;;;1.05;0.98;;;19.30;99.90;;;;;;5033903;28;20229;-74
2021/08/29 09:26:23;;;;;;;1.10;1.00;;;18.90;99.90;;;;;;5039119;28;20637;-72
2021/08/29 09:28:54;;;;;;;1.15;1.13;;;18.60;99.90;;;;;;5045067;28;20223;-74
2021/08/29 09:31:23;;;;;;;1.63;0.93;;;18.70;99.90;;;;;;5042552;28;20227;-73
2021/08/29 09:34:00;;;;;;;1.02;1.02;;;19.00;99.90;;;;;;5040323;28;20296;-74
2021/08/29 09:36:30;;;;;;;0.90;0.90;;;19.40;99.90;;;;;;5044257;28;20210;-74
2021/08/29 09:39:10;;;;;;;1.33;1.23;;;19.70;99.90;;;;;;5039102;28;20310;-74
2021/08/29 09:41:38;;;;;;;1.25;1.15;;;20.10;99.90;;;;;;5038322;28;20223;-74
2021/08/29 09:44:07;;;;;;;0.90;0.90;;;20.30;99.90;;;;;;5036763;28;20223;-74
2021/08/29 09:46:36;;;;;;;1.20;1.10;;;20.20;99.90;;;;;;5033824;28;20250;-75
2021/08/29 09:49:03;;;;;;;0.90;0.73;;;20.20;99.90;;;;;;5039537;28;20223;-75
2021/08/29 09:51:30;;;;;;;0.80;0.80;;;20.40;99.90;;;;;;5038643;28;20308;-75
2021/08/29 09:53:57;;;;;;;1.00;1.00;;;20.60;99.90;;;;;;5042221;28;20225;-75
2021/08/29 09:56:27;;;;;;;1.00;0.90;;;20.60;99.90;;;;;;5040811;28;20246;-75
2021/08/29 09:58:57;;;;;;;1.13;0.88;;;20.70;99.90;;;;;;5042677;28;20250;-74
2021/08/29 10:01:24;;;;;;;1.00;0.90;;;20.70;99.90;;;;;;5042930;28;20226;-75
2021/08/29 10:03:53;;;;;;;1.08;1.00;;;20.60;99.90;;;;;;5042854;28;20218;-74
2021/08/29 10:06:21;;;;;;;0.95;0.95;;;20.70;99.90;;;;;;5039896;28;20292;-74
2021/08/29 10:08:51;;;;;;;0.90;0.90;;;20.80;99.90;;;;;;5043872;28;20223;-75
2021/08/29 10:11:18;;;;;;;1.00;1.00;;;20.90;99.90;;;;;;5039585;28;20268;-75
2021/08/29 10:13:47;;;;;;;0.80;0.80;;;20.80;99.90;;;;;;5040210;28;20502;-75
2021/08/29 10:16:15;;;;;;;0.70;0.70;;;20.50;99.90;;;;;;5039034;28;20227;-75
2021/08/29 10:18:44;;;;;;;0.82;0.82;;;20.60;99.90;;;;;;5039846;28;20746;-74
2021/08/29 10:21:14;;;;;;;0.77;0.77;;;20.70;99.90;;;;;;5036576;28;20219;-75
2021/08/29 10:23:44;;;;;;;0.88;0.88;;;20.80;99.90;;;;;;5041615;28;20222;-75
2021/08/29 10:26:12;;;;;;;1.02;1.00;;;21.00;99.90;;;;;;5040731;28;20650;-74
2021/08/29 10:28:42;;;;;;;0.90;0.90;;;21.30;99.90;;;;;;5036410;28;20488;-74
2021/08/29 10:31:12;;;;;;;1.10;1.00;;;21.40;99.90;;;;;;5036609;28;20214;-74
2021/08/29 10:33:47;;;;;;;0.90;0.90;;;21.80;99.90;;;;;;5042817;28;20292;-74
2021/08/29 10:36:17;;;;;;;1.13;0.82;;;22.00;99.90;;;;;;5041966;28;20222;-74
2021/08/29 10:38:46;;;;;;;0.80;0.80;;;22.00;99.90;;;;;;5053191;22;20274;-74
2021/08/29 10:41:16;;;;;;;0.90;0.90;;;21.80;99.90;;;;;;5002476;28;20232;-74
2021/08/29 10:43:43;;;;;;;0.93;0.93;;;21.90;99.90;;;;;;5000874;28;20362;-73
2021/08/29 10:46:14;;;;;;;0.77;0.77;;;22.10;99.90;;;;;;5003752;28;20259;-76
2021/08/29 10:48:43;;;;;;;0.80;0.80;;;22.00;99.90;;;;;;5001249;28;20232;-74
2021/08/29 10:51:13;;;;;;;0.95;0.88;;;22.00;99.90;;;;;;4999356;28;20686;-74
2021/08/29 10:53:44;;;;;;;0.57;0.57;;;21.90;99.90;;;;;;5002963;28;20289;-74
2021/08/29 10:56:29;;;;;;;0.77;0.73;;;21.70;99.90;;;;;;5002421;28;20722;-74
2021/08/29 10:59:30;;;;;;;0.90;0.80;;;21.60;99.90;;;;;;5004248;28;20220;-74
2021/08/29 11:02:17;;;;;;;0.70;0.70;;;21.30;99.90;;;;;;4925205;28;20223;-74
2021/08/29 11:04:49;;;;;;;0.70;0.70;;;21.10;99.90;;;;;;4927943;28;20321;-74
2021/08/29 11:07:50;;;;;;;0.65;0.65;;;21.00;99.90;;;;;;4974283;28;20228;-74
2021/08/29 11:10:45;;;;;;;2.35;0.80;;;20.80;99.90;;;;;;4920388;29;20686;-74
2021/08/29 11:13:41;;;;;;;0.80;0.80;;;20.70;99.90;;;;;;5000782;28;20649;-74
2021/08/29 11:16:22;;;;;;;0.80;0.80;;;20.80;99.90;;;;;;5002044;28;20258;-74
2021/08/29 11:19:17;;;;;;;0.75;0.75;;;20.90;99.90;;;;;;5003271;28;20709;-74
2021/08/29 11:22:19;;;;;;;0.93;0.65;;;20.90;99.90;;;;;;5001871;28;20307;-75
2021/08/29 11:24:58;;;;;;;0.60;0.60;;;20.90;99.90;;;;;;5001223;28;20223;-74
2021/08/29 11:28:00;;;;;;;0.80;0.73;;;20.80;99.90;;;;;;4999140;28;20658;-74
2021/08/29 11:30:43;;;;;;;0.95;0.70;;;21.10;99.90;;;;;;5010683;28;20226;-75
2021/08/29 11:33:11;;;;;;;0.47;0.47;;;21.40;99.90;;;;;;5001372;28;20223;-74
2021/08/29 11:35:46;;;;;;;0.80;0.80;;;21.50;99.90;;;;;;5003751;28;20647;-74
2021/08/29 11:38:16;;;;;;;0.70;0.70;;;21.50;99.90;;;;;;5004098;28;20351;-75
2021/08/29 11:41:01;;;;;;;1.50;0.70;;;21.60;99.90;;;;;;5002775;28;20232;-72
2021/08/29 11:43:41;;;;;;;0.70;0.70;;;21.90;99.90;;;;;;5000436;28;20220;-74
2021/08/29 11:46:12;;;;;;;0.70;0.70;;;21.90;99.90;;;;;;5004247;28;20224;-74
2021/08/29 11:48:49;;;;;;;0.60;0.60;;;21.70;99.90;;;;;;5003364;28;20226;-74
2021/08/29 11:51:23;;;;;;;0.60;0.60;;;21.60;99.90;;;;;;5000141;28;20299;-74
2021/08/29 11:53:50;;;;;;;0.60;0.60;;;21.80;99.90;;;;;;4999860;28;20271;-74
2021/08/29 11:56:19;;;;;;;0.68;0.68;;;21.90;99.90;;;;;;4999727;28;20789;-75
2021/08/29 11:58:49;;;;;;;0.63;0.63;;;22.00;99.90;;;;;;5002700;28;20224;-75
2021/08/29 12:01:17;;;;;;;0.80;0.80;;;22.00;99.90;;;;;;5000642;28;20228;-74
2021/08/29 12:03:45;;;;;;;0.70;0.70;;;21.90;99.90;;;;;;4987537;28;20286;-73
2021/08/29 12:06:20;;;;;;;0.68;0.68;;;22.00;99.90;;;;;;5000999;28;20305;-74
2021/08/29 12:09:01;;;;;;;0.73;0.73;;;22.10;99.90;;;;;;5002310;28;20224;-74
2021/08/29 12:11:29;;;;;;;2.22;0.90;;;22.20;99.90;;;;;;5002252;28;20216;-75
2021/08/29 12:13:59;;;;;;;0.63;0.63;;;22.20;99.90;;;;;;5002999;28;20624;-74
2021/08/29 12:16:26;;;;;;;0.60;0.60;;;22.10;99.90;;;;;;5006850;28;20227;-74
2021/08/29 12:18:55;;;;;;;0.70;0.70;;;22.10;99.90;;;;;;5001183;28;20239;-74
2021/08/29 12:21:22;;;;;;;0.73;0.70;;;22.00;99.90;;;;;;5004797;28;20281;-74
2021/08/29 12:23:55;;;;;;;1.08;0.70;;;22.00;99.90;;;;;;5015619;28;20224;-74
2021/08/29 12:26:27;;;;;;;0.70;0.70;;;21.90;99.90;;;;;;5004434;28;20224;-73
2021/08/29 12:29:02;;;;;;;0.50;0.50;;;21.70;99.90;;;;;;5003485;28;20307;-73
2021/08/29 12:31:36;;;;;;;0.55;0.55;;;21.60;99.90;;;;;;5005442;28;20226;-74
2021/08/29 12:34:04;;;;;;;0.55;0.55;;;21.70;99.90;;;;;;5003868;28;20219;-74
2021/08/29 12:36:32;;;;;;;1.70;0.60;;;21.80;99.90;;;;;;5003634;28;20236;-74
2021/08/29 12:39:00;;;;;;;0.50;0.50;;;22.00;99.90;;;;;;5002839;28;20248;-74
2021/08/29 12:41:27;;;;;;;0.60;0.60;;;22.20;99.90;;;;;;5003833;28;20232;-74
2021/08/29 12:44:05;;;;;;;0.80;0.60;;;22.30;99.90;;;;;;5003557;28;20641;-74
2021/08/29 12:46:33;;;;;;;0.50;0.50;;;22.40;99.90;;;;;;5003554;28;20606;-73
2021/08/29 12:49:00;;;;;;;1.05;0.70;;;22.30;99.90;;;;;;4999971;28;20239;-74
2021/08/29 12:51:28;;;;;;;0.40;0.40;;;22.30;99.90;;;;;;5003764;28;21009;-74
2021/08/29 12:54:00;;;;;;;0.60;0.60;;;22.20;99.90;;;;;;5000709;28;20321;-74
2021/08/29 12:56:27;;;;;;;0.60;0.60;;;22.30;99.90;;;;;;5004016;28;20224;-74
2021/08/29 12:58:55;;;;;;;0.82;0.82;;;22.50;99.90;;;;;;5006842;28;20596;-73